Time;durP1;ratioP1;P1;durP2;ratioP2;P2;SDS_P1;SDS_P2;PMS_P1;PMS_P2;Temp;Humidity;BMP_temperature;BMP_pressure;BME280_temperature;BME280_humidity;BME280_pressure;Samples;Min_cycle;Max_cycle;Signal;HPM_P1;HPM_P2
2022/07/30 00:02:02;;;;;;;8.75;3.45;;;19.20;99.90;;;;;;5136638;27;20642;-51
2022/07/30 00:04:28;;;;;;;6.35;4.00;;;19.20;99.90;;;;;;5136606;27;20160;-46
2022/07/30 00:06:54;;;;;;;5.68;3.50;;;19.20;99.90;;;;;;5136555;27;20170;-52
2022/07/30 00:09:19;;;;;;;4.68;3.38;;;19.20;99.90;;;;;;5136603;27;20627;-53
2022/07/30 00:11:45;;;;;;;5.10;4.55;;;19.30;99.90;;;;;;5136338;27;20212;-53
2022/07/30 00:14:11;;;;;;;5.63;3.70;;;19.30;99.90;;;;;;5136488;27;20186;-53
2022/07/30 00:16:37;;;;;;;7.95;4.25;;;19.20;99.90;;;;;;5136487;27;20588;-53
2022/07/30 00:19:02;;;;;;;4.90;3.85;;;19.20;99.90;;;;;;5136261;27;20258;-53
2022/07/30 00:21:28;;;;;;;9.13;3.75;;;19.10;99.90;;;;;;5136314;27;20195;-53
2022/07/30 00:23:54;;;;;;;6.07;4.40;;;19.00;99.90;;;;;;5136279;27;20172;-52
2022/07/30 00:26:20;;;;;;;8.23;4.30;;;19.00;99.90;;;;;;5136507;27;20567;-53
2022/07/30 00:28:46;;;;;;;7.70;4.18;;;18.90;99.90;;;;;;5136450;27;20172;-52
2022/07/30 00:31:11;;;;;;;6.57;4.68;;;18.70;99.90;;;;;;5136136;27;20203;-51
2022/07/30 00:33:37;;;;;;;6.15;4.43;;;18.50;99.90;;;;;;5136042;27;20187;-52
2022/07/30 00:36:03;;;;;;;6.70;4.82;;;18.50;99.90;;;;;;5136041;27;20688;-53
2022/07/30 00:38:28;;;;;;;7.57;4.70;;;18.50;99.90;;;;;;5135899;27;20282;-52
2022/07/30 00:40:54;;;;;;;5.05;4.35;;;18.50;99.90;;;;;;5135949;27;20164;-52
2022/07/30 00:43:19;;;;;;;6.47;4.93;;;18.50;99.90;;;;;;5136230;27;20172;-52
2022/07/30 00:45:45;;;;;;;5.35;4.35;;;18.40;99.90;;;;;;5136110;27;20164;-52
2022/07/30 00:48:12;;;;;;;7.57;4.60;;;18.40;99.90;;;;;;5135841;27;20221;-43
2022/07/30 00:50:38;;;;;;;5.95;4.28;;;18.40;99.90;;;;;;5135811;27;20167;-43
2022/07/30 00:53:05;;;;;;;6.55;4.45;;;18.40;99.90;;;;;;5136282;27;20518;-43
2022/07/30 00:55:31;;;;;;;5.78;4.15;;;18.40;99.90;;;;;;5117544;27;20164;-43
2022/07/30 00:57:57;;;;;;;7.05;4.55;;;18.30;99.90;;;;;;5135777;27;20218;-43
2022/07/30 01:00:23;;;;;;;8.18;4.85;;;18.30;99.90;;;;;;5135615;27;20163;-51
2022/07/30 01:02:49;;;;;;;5.25;4.75;;;18.30;99.90;;;;;;5135848;27;20196;-53
2022/07/30 01:05:15;;;;;;;6.40;4.90;;;18.20;99.90;;;;;;5135523;27;20561;-53
2022/07/30 01:07:41;;;;;;;5.50;4.95;;;18.20;99.90;;;;;;5134853;27;20168;-53
2022/07/30 01:10:08;;;;;;;8.82;4.90;;;18.10;99.90;;;;;;5135367;27;20572;-53
2022/07/30 01:12:34;;;;;;;13.20;5.53;;;18.10;99.90;;;;;;5135165;27;20560;-53
2022/07/30 01:15:03;;;;;;;5.97;5.32;;;18.10;99.90;;;;;;5135476;27;20168;-53
2022/07/30 01:17:29;;;;;;;6.35;4.90;;;18.00;99.90;;;;;;5116801;27;20211;-52
2022/07/30 01:20:01;;;;;;;7.10;5.20;;;18.00;99.90;;;;;;5135283;27;20546;-52
2022/07/30 01:22:29;;;;;;;8.63;5.15;;;18.00;99.90;;;;;;5135079;27;20164;-52
2022/07/30 01:25:21;;;;;;;8.35;5.20;;;17.80;99.90;;;;;;5135062;27;20164;-53
2022/07/30 01:27:51;;;;;;;7.75;5.57;;;17.80;99.90;;;;;;5135384;27;20168;-53
2022/07/30 01:30:22;;;;;;;8.73;5.90;;;17.70;99.90;;;;;;5135267;27;20197;-51
2022/07/30 01:32:49;;;;;;;8.45;5.00;;;17.70;99.90;;;;;;5135228;27;20152;-49
2022/07/30 01:35:17;;;;;;;7.38;5.40;;;17.60;99.90;;;;;;5135291;27;20669;-52
2022/07/30 01:37:44;;;;;;;6.72;5.30;;;17.70;99.90;;;;;;5134781;27;20216;-51
2022/07/30 01:40:11;;;;;;;7.28;5.50;;;17.70;99.90;;;;;;5135033;27;20175;-48
2022/07/30 01:42:38;;;;;;;7.75;5.35;;;17.60;99.90;;;;;;5134535;27;20278;-51
2022/07/30 01:45:05;;;;;;;6.75;5.30;;;17.50;99.90;;;;;;5134949;27;20255;-52
2022/07/30 01:47:34;;;;;;;7.18;5.25;;;17.40;99.90;;;;;;5134602;27;20160;-49
2022/07/30 01:50:03;;;;;;;7.53;5.22;;;17.30;99.90;;;;;;5134625;27;20167;-52
2022/07/30 01:52:31;;;;;;;5.38;4.80;;;17.40;99.90;;;;;;5134853;27;20692;-53
2022/07/30 01:54:59;;;;;;;6.82;5.32;;;17.30;99.90;;;;;;5134439;27;20172;-52
2022/07/30 01:57:25;;;;;;;6.38;5.05;;;17.20;99.90;;;;;;5134376;27;20234;-51
2022/07/30 01:59:57;;;;;;;7.43;4.70;;;17.20;99.90;;;;;;5134401;27;20195;-52
2022/07/30 02:02:23;;;;;;;7.03;5.47;;;17.30;99.90;;;;;;5134576;27;20507;-49
2022/07/30 02:04:49;;;;;;;10.13;5.40;;;17.30;99.90;;;;;;5134821;27;20217;-50
2022/07/30 02:07:26;;;;;;;6.45;5.53;;;17.10;99.90;;;;;;5134804;27;20193;-53
2022/07/30 02:10:02;;;;;;;6.57;5.47;;;17.40;99.90;;;;;;5134469;27;20175;-53
2022/07/30 02:12:31;;;;;;;9.80;5.88;;;17.30;99.90;;;;;;5134050;27;20226;-52
2022/07/30 02:15:02;;;;;;;9.65;6.93;;;17.30;99.90;;;;;;5134378;27;20179;-43
2022/07/30 02:17:37;;;;;;;7.00;6.30;;;17.20;99.90;;;;;;5134062;27;20619;-50
2022/07/30 02:20:03;;;;;;;9.20;6.28;;;17.20;99.90;;;;;;5134175;27;20167;-45
2022/07/30 02:22:35;;;;;;;8.63;5.88;;;17.20;99.90;;;;;;5133847;27;20259;-50
2022/07/30 02:25:02;;;;;;;8.73;6.07;;;17.20;99.90;;;;;;5133879;27;20179;-49
2022/07/30 02:27:32;;;;;;;7.15;6.45;;;17.10;99.90;;;;;;5133876;27;20221;-43
2022/07/30 02:30:00;;;;;;;8.35;6.32;;;17.10;99.90;;;;;;5133722;27;20203;-44
2022/07/30 02:32:29;;;;;;;9.18;6.78;;;17.20;99.90;;;;;;5133819;27;20246;-49
2022/07/30 02:35:00;;;;;;;9.15;6.45;;;17.10;99.90;;;;;;5133972;27;20175;-51
2022/07/30 02:37:28;;;;;;;7.25;6.22;;;17.10;99.90;;;;;;5133822;27;20259;-47
2022/07/30 02:39:55;;;;;;;7.22;5.88;;;17.00;99.90;;;;;;5133599;27;20556;-47
2022/07/30 02:42:23;;;;;;;7.38;6.15;;;17.00;99.90;;;;;;5133401;27;20510;-46
2022/07/30 02:44:51;;;;;;;7.90;6.18;;;17.00;99.90;;;;;;5133846;27;20167;-49
2022/07/30 02:47:20;;;;;;;8.10;5.78;;;16.90;99.90;;;;;;5133817;27;20695;-47
2022/07/30 02:49:49;;;;;;;8.02;6.00;;;16.90;99.90;;;;;;5133846;27;20200;-51
2022/07/30 02:52:16;;;;;;;12.13;6.78;;;16.90;99.90;;;;;;5115275;27;20200;-50
2022/07/30 02:54:43;;;;;;;8.70;6.35;;;16.90;99.90;;;;;;5133384;27;20168;-47
2022/07/30 02:57:10;;;;;;;9.77;6.30;;;16.90;99.90;;;;;;5133511;27;20196;-50
2022/07/30 02:59:39;;;;;;;11.77;6.47;;;16.90;99.90;;;;;;5133589;27;20251;-47
2022/07/30 03:02:08;;;;;;;7.50;6.10;;;16.90;99.90;;;;;;5133362;27;20159;-46
2022/07/30 03:04:36;;;;;;;8.90;7.18;;;17.00;99.90;;;;;;5133144;27;20168;-49
2022/07/30 03:07:02;;;;;;;10.50;6.70;;;17.00;99.90;;;;;;5133124;27;20178;-51
2022/07/30 03:09:29;;;;;;;11.65;6.75;;;17.00;99.90;;;;;;5133189;27;20168;-47
2022/07/30 03:11:56;;;;;;;8.00;6.55;;;17.00;99.90;;;;;;5133005;27;20215;-49
2022/07/30 03:14:21;;;;;;;8.75;6.28;;;17.10;99.90;;;;;;5133207;27;20200;-50
2022/07/30 03:16:54;;;;;;;7.40;6.47;;;17.10;99.90;;;;;;5133362;27;20200;-43
2022/07/30 03:19:22;;;;;;;7.22;6.43;;;17.20;99.90;;;;;;5132945;27;20175;-43
2022/07/30 03:21:49;;;;;;;6.82;5.93;;;17.20;99.90;;;;;;5133177;27;20673;-44
2022/07/30 03:24:16;;;;;;;7.55;6.85;;;17.10;99.90;;;;;;5133336;27;20172;-44
2022/07/30 03:26:44;;;;;;;9.55;7.20;;;16.90;99.90;;;;;;5132867;27;20163;-44
2022/07/30 03:29:12;;;;;;;7.97;6.82;;;16.90;99.90;;;;;;5132931;27;20160;-45
2022/07/30 03:31:39;;;;;;;9.73;7.07;;;16.80;99.90;;;;;;5132434;27;20164;-47
2022/07/30 03:34:07;;;;;;;9.85;6.78;;;16.80;99.90;;;;;;5133058;27;20568;-53
2022/07/30 03:36:34;;;;;;;7.95;6.97;;;16.70;99.90;;;;;;5133034;27;20172;-53
2022/07/30 03:39:01;;;;;;;9.18;7.43;;;16.80;99.90;;;;;;5132829;27;20506;-53
2022/07/30 03:41:27;;;;;;;7.32;6.53;;;16.70;99.90;;;;;;5132865;27;20167;-53
2022/07/30 03:43:54;;;;;;;9.43;6.22;;;16.70;99.90;;;;;;5132798;27;20242;-53
2022/07/30 03:46:20;;;;;;;8.02;6.57;;;16.70;99.90;;;;;;5132693;27;20168;-53
2022/07/30 03:48:47;;;;;;;8.52;6.88;;;16.60;99.90;;;;;;5133051;27;20533;-53
2022/07/30 03:51:13;;;;;;;8.40;6.47;;;16.60;99.90;;;;;;5132934;27;20180;-50
2022/07/30 03:53:42;;;;;;;9.65;6.78;;;16.60;99.90;;;;;;5114261;27;20168;-51
2022/07/30 03:56:09;;;;;;;10.95;6.93;;;16.50;99.90;;;;;;5132651;27;20639;-51
2022/07/30 03:58:37;;;;;;;10.75;7.20;;;16.40;99.90;;;;;;5132777;27;20290;-48
2022/07/30 04:01:03;;;;;;;10.13;6.97;;;16.50;99.90;;;;;;5132607;27;20243;-51
2022/07/30 04:03:31;;;;;;;10.10;7.35;;;16.40;99.90;;;;;;5132607;27;20286;-49
2022/07/30 04:05:57;;;;;;;8.07;6.40;;;16.50;99.90;;;;;;5132578;27;20167;-43
2022/07/30 04:08:23;;;;;;;10.80;7.15;;;16.50;99.90;;;;;;5132586;27;20635;-43
2022/07/30 04:10:49;;;;;;;8.80;7.32;;;16.60;99.90;;;;;;5132322;27;20565;-43
2022/07/30 04:13:15;;;;;;;9.27;6.65;;;16.50;99.90;;;;;;5133103;27;20179;-43
2022/07/30 04:15:45;;;;;;;9.60;6.63;;;16.40;99.90;;;;;;5132484;27;20161;-42
2022/07/30 04:18:14;;;;;;;8.82;6.80;;;16.40;99.90;;;;;;5132376;27;20249;-43
2022/07/30 04:20:42;;;;;;;7.30;6.22;;;16.30;99.90;;;;;;5132476;28;20252;-43
2022/07/30 04:23:09;;;;;;;10.77;7.07;;;16.40;99.90;;;;;;5132423;27;20196;-43
2022/07/30 04:25:35;;;;;;;9.05;7.13;;;16.50;99.90;;;;;;5132418;27;20221;-42
2022/07/30 04:28:03;;;;;;;9.52;6.90;;;16.50;99.90;;;;;;5132403;27;20642;-44
2022/07/30 04:30:32;;;;;;;10.43;6.95;;;16.50;99.90;;;;;;5132436;27;20252;-42
2022/07/30 04:32:57;;;;;;;8.90;6.45;;;16.60;99.90;;;;;;5132312;27;20251;-43
2022/07/30 04:35:27;;;;;;;8.10;6.65;;;16.60;99.90;;;;;;5132410;28;20243;-43
2022/07/30 04:37:53;;;;;;;8.43;6.30;;;16.60;99.90;;;;;;5132193;27;20232;-43
2022/07/30 04:40:19;;;;;;;11.75;6.72;;;16.50;99.90;;;;;;5132354;27;20191;-44
2022/07/30 04:42:44;;;;;;;10.20;6.80;;;16.50;99.90;;;;;;5133116;27;20213;-53
2022/07/30 04:45:10;;;;;;;9.43;5.88;;;16.50;99.90;;;;;;5135915;27;20171;-53
2022/07/30 04:47:36;;;;;;;6.55;5.95;;;16.50;99.90;;;;;;5135774;27;20247;-50
2022/07/30 04:50:05;;;;;;;8.07;7.07;;;16.50;99.90;;;;;;5135792;27;20171;-53
2022/07/30 04:52:31;;;;;;;10.45;6.75;;;16.60;99.90;;;;;;5135910;27;20152;-43
2022/07/30 04:55:01;;;;;;;8.40;6.03;;;16.80;99.90;;;;;;5135931;27;20703;-43
2022/07/30 04:57:27;;;;;;;7.10;6.40;;;16.70;99.90;;;;;;5135569;27;20196;-43
2022/07/30 04:59:53;;;;;;;10.18;6.60;;;16.70;99.90;;;;;;5135943;27;20197;-43
2022/07/30 05:02:24;;;;;;;9.43;6.57;;;16.70;99.90;;;;;;5135645;27;20251;-48
2022/07/30 05:04:50;;;;;;;11.98;7.18;;;16.80;99.90;;;;;;5135568;27;20160;-42
2022/07/30 05:07:17;;;;;;;13.02;7.60;;;16.70;99.90;;;;;;5135887;27;20186;-43
2022/07/30 05:09:43;;;;;;;10.98;7.40;;;16.80;99.90;;;;;;5135897;27;20164;-49
2022/07/30 05:12:09;;;;;;;11.75;7.93;;;16.90;99.90;;;;;;5135259;27;20270;-47
2022/07/30 05:14:35;;;;;;;10.75;8.15;;;17.00;99.90;;;;;;5135290;27;20168;-49
2022/07/30 05:17:00;;;;;;;18.92;8.95;;;17.10;99.90;;;;;;5135209;27;20260;-50
2022/07/30 05:19:26;;;;;;;18.55;9.27;;;17.10;99.90;;;;;;5135265;27;20505;-48
2022/07/30 05:21:52;;;;;;;13.32;9.07;;;17.30;99.90;;;;;;5135235;27;20176;-43
2022/07/30 05:24:18;;;;;;;14.82;9.85;;;17.30;99.90;;;;;;5135371;27;20623;-43
2022/07/30 05:26:44;;;;;;;16.77;10.43;;;17.30;99.90;;;;;;5135355;27;20164;-43
2022/07/30 05:29:10;;;;;;;16.75;11.30;;;17.30;99.90;;;;;;5135014;27;20167;-43
2022/07/30 05:31:35;;;;;;;15.43;11.07;;;17.20;99.90;;;;;;5134990;27;20520;-43
2022/07/30 05:34:01;;;;;;;20.80;11.52;;;17.30;99.90;;;;;;5116477;27;20531;-48
2022/07/30 05:36:27;;;;;;;17.55;11.95;;;17.20;99.90;;;;;;5135166;27;20247;-43
2022/07/30 05:38:53;;;;;;;21.30;12.35;;;17.30;99.90;;;;;;5134729;27;20313;-44
2022/07/30 05:41:18;;;;;;;20.77;12.18;;;17.40;99.90;;;;;;5134831;27;20160;-44
2022/07/30 05:43:44;;;;;;;19.52;12.32;;;17.60;99.90;;;;;;5135013;27;20172;-42
2022/07/30 05:46:09;;;;;;;25.98;12.88;;;17.70;99.90;;;;;;5134612;27;20168;-43
2022/07/30 05:48:35;;;;;;;17.55;11.55;;;17.70;99.90;;;;;;5134516;27;20168;-43
2022/07/30 05:51:02;;;;;;;18.23;11.38;;;17.70;99.90;;;;;;5134560;27;20160;-46
2022/07/30 05:53:28;;;;;;;21.45;11.93;;;17.80;99.90;;;;;;5134282;27;20164;-42
2022/07/30 05:55:53;;;;;;;21.30;12.35;;;17.80;99.90;;;;;;5134698;27;20170;-43
2022/07/30 05:58:19;;;;;;;17.13;11.77;;;18.00;99.90;;;;;;5134443;27;20211;-42
2022/07/30 06:00:44;;;;;;;19.40;11.73;;;18.10;99.90;;;;;;5134735;27;20217;-42
2022/07/30 06:03:10;;;;;;;19.90;11.68;;;18.30;99.90;;;;;;5134536;27;20164;-43
2022/07/30 06:05:36;;;;;;;20.38;12.35;;;18.20;99.90;;;;;;5134526;27;20526;-43
2022/07/30 06:08:02;;;;;;;20.52;11.07;;;18.10;99.90;;;;;;5134296;27;20251;-43
2022/07/30 06:10:28;;;;;;;17.63;12.55;;;18.10;99.90;;;;;;5134081;27;20171;-42
2022/07/30 06:12:54;;;;;;;19.65;11.20;;;18.10;99.90;;;;;;5134169;27;20176;-43
2022/07/30 06:15:20;;;;;;;22.60;13.52;;;18.20;99.90;;;;;;5134113;27;20167;-43
2022/07/30 06:17:47;;;;;;;20.00;12.88;;;18.30;99.90;;;;;;5134462;27;20654;-43
2022/07/30 06:20:14;;;;;;;19.27;11.20;;;18.40;99.90;;;;;;5116055;27;20185;-44
2022/07/30 06:22:40;;;;;;;21.00;12.43;;;18.50;99.90;;;;;;5133988;27;20168;-41
2022/07/30 06:25:07;;;;;;;23.33;12.70;;;18.50;99.90;;;;;;5133942;27;20164;-43
2022/07/30 06:27:33;;;;;;;20.40;12.40;;;18.40;99.90;;;;;;5134022;27;20514;-43
2022/07/30 06:30:07;;;;;;;17.58;12.38;;;18.60;99.90;;;;;;5133876;27;20168;-45
2022/07/30 06:32:34;;;;;;;17.13;11.73;;;18.60;99.90;;;;;;5133686;27;20233;-43
2022/07/30 06:34:59;;;;;;;19.58;11.05;;;18.60;99.90;;;;;;5133631;27;20179;-46
2022/07/30 06:37:25;;;;;;;18.52;12.60;;;18.50;99.90;;;;;;5133513;27;20196;-43
2022/07/30 06:39:51;;;;;;;16.52;11.95;;;18.70;99.90;;;;;;5133512;27;20205;-43
2022/07/30 06:42:17;;;;;;;17.08;12.55;;;18.70;99.90;;;;;;5133878;27;20156;-47
2022/07/30 06:44:43;;;;;;;21.85;12.32;;;18.70;99.90;;;;;;5133876;27;20631;-43
2022/07/30 06:47:08;;;;;;;18.88;12.40;;;18.80;99.90;;;;;;5133548;27;20221;-45
2022/07/30 06:49:36;;;;;;;19.85;12.95;;;18.70;99.90;;;;;;5133466;27;20206;-43
2022/07/30 06:52:02;;;;;;;19.02;11.77;;;18.80;99.90;;;;;;5133665;27;20174;-43
2022/07/30 06:54:28;;;;;;;18.95;12.23;;;18.80;99.90;;;;;;5114951;27;20174;-43
2022/07/30 06:56:53;;;;;;;19.42;12.48;;;18.70;99.90;;;;;;5133145;27;20246;-43
2022/07/30 06:59:19;;;;;;;22.83;13.13;;;18.80;99.90;;;;;;5133227;27;20164;-46
2022/07/30 07:01:44;;;;;;;19.02;12.02;;;18.90;99.90;;;;;;5133774;27;20164;-45
2022/07/30 07:04:10;;;;;;;18.05;12.23;;;19.10;99.90;;;;;;5133233;27;20171;-46
2022/07/30 07:06:36;;;;;;;17.60;11.75;;;19.20;99.90;;;;;;5132505;27;20156;-53
2022/07/30 07:09:03;;;;;;;19.80;12.15;;;19.30;99.90;;;;;;5133203;27;20634;-52
2022/07/30 07:11:29;;;;;;;17.05;11.98;;;19.20;99.90;;;;;;5132907;27;20211;-53
2022/07/30 07:13:54;;;;;;;17.92;12.02;;;19.30;99.90;;;;;;5133253;27;20179;-49
2022/07/30 07:16:23;;;;;;;17.80;12.20;;;19.50;99.90;;;;;;5132973;27;20508;-51
2022/07/30 07:18:49;;;;;;;20.98;12.93;;;19.30;99.90;;;;;;5133292;27;20608;-52
2022/07/30 07:21:17;;;;;;;19.25;11.98;;;19.60;99.90;;;;;;5133124;27;20164;-51
2022/07/30 07:23:42;;;;;;;17.52;12.18;;;19.80;99.90;;;;;;5132738;27;20172;-52
2022/07/30 07:26:09;;;;;;;17.13;11.10;;;19.90;99.90;;;;;;5132568;27;20255;-51
2022/07/30 07:28:35;;;;;;;20.02;11.45;;;19.70;99.90;;;;;;5132987;27;20255;-52
2022/07/30 07:31:00;;;;;;;17.58;10.50;;;19.80;99.90;;;;;;5132451;28;20207;-52
2022/07/30 07:33:26;;;;;;;16.48;10.98;;;20.00;99.90;;;;;;5132463;27;20251;-52
2022/07/30 07:35:53;;;;;;;13.90;9.52;;;20.20;99.90;;;;;;5132520;27;20186;-52
2022/07/30 07:38:19;;;;;;;16.35;10.80;;;20.20;99.90;;;;;;5132583;27;20264;-51
2022/07/30 07:40:45;;;;;;;14.65;10.95;;;20.30;99.90;;;;;;5132718;27;20159;-52
2022/07/30 07:43:11;;;;;;;17.73;11.13;;;20.30;99.90;;;;;;5132753;28;20203;-52
2022/07/30 07:45:38;;;;;;;14.35;9.40;;;20.40;99.90;;;;;;5132693;27;20648;-52
2022/07/30 07:48:03;;;;;;;15.30;11.05;;;20.20;99.90;;;;;;5132876;27;20168;-52
2022/07/30 07:50:29;;;;;;;12.57;9.23;;;20.20;99.90;;;;;;5132127;27;20269;-51
2022/07/30 07:52:55;;;;;;;16.15;10.13;;;20.40;99.90;;;;;;5132327;27;20179;-52
2022/07/30 07:55:20;;;;;;;11.95;9.43;;;20.60;99.90;;;;;;5132606;27;20168;-53
2022/07/30 07:57:46;;;;;;;16.60;10.55;;;20.70;99.90;;;;;;5133029;27;20236;-52
2022/07/30 08:00:13;;;;;;;15.57;9.88;;;20.60;99.90;;;;;;5132260;27;20156;-50
2022/07/30 08:02:39;;;;;;;13.13;9.32;;;20.60;99.90;;;;;;5132377;27;20164;-50
2022/07/30 08:05:06;;;;;;;12.70;9.43;;;20.80;99.90;;;;;;5132240;27;20218;-52
2022/07/30 08:07:33;;;;;;;15.43;9.52;;;20.80;99.90;;;;;;5132571;27;20175;-52
2022/07/30 08:09:58;;;;;;;13.63;10.27;;;21.00;99.90;;;;;;5132620;27;20542;-52
2022/07/30 08:12:24;;;;;;;12.75;10.18;;;21.10;99.90;;;;;;5132385;27;20299;-52
2022/07/30 08:14:50;;;;;;;17.17;9.55;;;21.10;99.90;;;;;;5132195;27;20172;-52
2022/07/30 08:17:15;;;;;;;14.10;10.20;;;21.20;99.90;;;;;;5133963;27;20260;-52
2022/07/30 08:19:41;;;;;;;14.93;9.77;;;21.10;99.90;;;;;;5136316;27;20168;-52
2022/07/30 08:22:06;;;;;;;14.70;9.82;;;20.80;99.90;;;;;;5136056;27;20176;-52
2022/07/30 08:24:32;;;;;;;16.42;10.82;;;21.20;99.90;;;;;;5135944;27;20204;-50
2022/07/30 08:26:58;;;;;;;13.85;9.63;;;21.20;99.90;;;;;;5136417;27;20168;-52
2022/07/30 08:29:23;;;;;;;14.48;10.52;;;21.20;99.90;;;;;;5135933;27;20171;-44
2022/07/30 08:31:49;;;;;;;15.35;10.70;;;21.20;99.90;;;;;;5136531;27;20167;-42
2022/07/30 08:34:15;;;;;;;12.45;10.13;;;21.30;99.90;;;;;;5136559;27;20168;-52
2022/07/30 08:36:41;;;;;;;12.57;9.75;;;21.50;99.90;;;;;;5136388;27;20172;-52
2022/07/30 08:39:07;;;;;;;15.00;9.60;;;21.40;99.90;;;;;;5136138;27;20515;-52
2022/07/30 08:41:35;;;;;;;16.85;9.98;;;21.70;99.90;;;;;;5136566;27;20255;-52
2022/07/30 08:44:01;;;;;;;13.77;9.43;;;21.50;99.90;;;;;;5136114;27;20171;-52
2022/07/30 08:46:30;;;;;;;16.40;9.98;;;21.70;99.90;;;;;;5136300;27;20160;-51
2022/07/30 08:48:57;;;;;;;11.98;9.98;;;21.50;99.90;;;;;;5117440;27;20172;-43
2022/07/30 08:51:23;;;;;;;14.25;9.25;;;21.60;99.90;;;;;;5136456;27;20178;-43
2022/07/30 08:53:49;;;;;;;11.30;9.65;;;21.90;99.90;;;;;;5136123;27;20164;-43
2022/07/30 08:56:15;;;;;;;13.18;9.80;;;21.70;99.90;;;;;;5118132;27;20167;-43
2022/07/30 08:58:41;;;;;;;14.80;8.93;;;21.70;99.90;;;;;;5135835;27;20554;-45
2022/07/30 09:01:07;;;;;;;12.32;8.95;;;21.80;99.90;;;;;;5135976;27;20179;-48
2022/07/30 09:03:34;;;;;;;11.43;7.95;;;21.80;99.90;;;;;;5135887;27;20180;-49
2022/07/30 09:06:01;;;;;;;13.07;8.55;;;22.00;99.90;;;;;;5135803;27;20160;-48
2022/07/30 09:08:27;;;;;;;13.27;7.78;;;22.20;99.90;;;;;;5116998;27;20209;-48
2022/07/30 09:10:52;;;;;;;10.68;7.55;;;22.40;99.90;;;;;;5135415;27;20300;-49
2022/07/30 09:13:36;;;;;;;11.35;8.07;;;22.50;99.90;;;;;;5135537;27;20157;-45
2022/07/30 09:16:04;;;;;;;13.38;7.70;;;22.40;99.90;;;;;;5135501;27;20195;-45
2022/07/30 09:18:33;;;;;;;9.52;7.18;;;22.40;99.90;;;;;;5135143;27;20200;-43
2022/07/30 09:21:00;;;;;;;11.48;6.90;;;22.70;99.90;;;;;;5135162;27;20168;-46
2022/07/30 09:23:26;;;;;;;10.10;7.22;;;22.90;99.90;;;;;;5135081;27;20176;-43
2022/07/30 09:25:53;;;;;;;10.68;7.28;;;22.70;99.90;;;;;;5135046;27;20174;-44
2022/07/30 09:28:28;;;;;;;9.45;7.97;;;23.00;99.90;;;;;;5134558;27;20622;-42
2022/07/30 09:30:55;;;;;;;10.27;7.85;;;23.20;99.90;;;;;;5135136;27;20167;-45
2022/07/30 09:33:32;;;;;;;12.07;8.05;;;23.10;99.90;;;;;;5135085;27;20164;-48
2022/07/30 09:35:58;;;;;;;8.80;6.78;;;23.30;99.90;;;;;;5135018;27;20189;-43
2022/07/30 09:38:25;;;;;;;9.80;6.72;;;23.30;99.90;;;;;;5134958;27;20279;-44
2022/07/30 09:40:52;;;;;;;10.98;5.70;;;23.00;99.90;;;;;;5134935;27;20168;-43
2022/07/30 09:43:17;;;;;;;7.65;5.97;;;23.30;99.90;;;;;;5134969;27;20247;-43
2022/07/30 09:45:51;;;;;;;7.75;5.95;;;23.40;99.90;;;;;;5135187;27;20239;-43
2022/07/30 09:48:21;;;;;;;7.35;5.95;;;23.40;99.90;;;;;;5116264;27;20172;-43
2022/07/30 09:50:49;;;;;;;10.85;5.60;;;23.70;99.90;;;;;;5134925;27;20567;-44
2022/07/30 09:53:15;;;;;;;10.18;5.82;;;23.70;99.90;;;;;;5134819;27;20163;-46
2022/07/30 09:55:40;;;;;;;8.32;6.13;;;23.90;99.90;;;;;;5134463;27;20209;-43
2022/07/30 09:58:06;;;;;;;8.52;5.57;;;23.80;99.90;;;;;;5134387;27;20215;-43
2022/07/30 10:00:36;;;;;;;6.05;5.47;;;24.10;99.90;;;;;;5134245;27;20190;-43
2022/07/30 10:03:17;;;;;;;7.57;5.75;;;24.40;99.90;;;;;;5134485;27;20167;-45
2022/07/30 10:05:52;;;;;;;7.47;5.47;;;24.10;99.90;;;;;;5134569;27;20160;-43
2022/07/30 10:08:19;;;;;;;7.93;5.70;;;24.10;99.90;;;;;;5115784;27;20178;-43
2022/07/30 10:10:45;;;;;;;10.50;6.35;;;24.10;99.90;;;;;;5134453;27;20290;-44
2022/07/30 10:13:13;;;;;;;9.77;6.50;;;24.50;99.90;;;;;;5134349;27;20200;-44
2022/07/30 10:15:39;;;;;;;9.10;6.45;;;24.30;99.90;;;;;;5133995;27;20179;-47
2022/07/30 10:18:05;;;;;;;6.18;5.55;;;23.90;99.90;;;;;;5133946;27;20654;-44
2022/07/30 10:20:31;;;;;;;9.75;6.22;;;24.00;99.90;;;;;;5134062;27;20170;-43
2022/07/30 10:22:57;;;;;;;7.68;6.00;;;24.20;99.90;;;;;;5133948;27;20214;-45
2022/07/30 10:25:25;;;;;;;8.70;6.00;;;24.20;99.90;;;;;;5133996;27;20198;-43
2022/07/30 10:27:51;;;;;;;5.93;4.88;;;24.40;99.90;;;;;;5133818;27;20163;-47
2022/07/30 10:30:17;;;;;;;8.55;4.60;;;24.40;99.90;;;;;;5115378;27;20523;-43
2022/07/30 10:32:44;;;;;;;8.00;4.40;;;24.10;99.90;;;;;;5134088;27;20164;-43
2022/07/30 10:35:11;;;;;;;5.85;4.20;;;24.60;99.90;;;;;;5133772;27;20287;-43
2022/07/30 10:37:41;;;;;;;5.78;4.43;;;24.70;99.90;;;;;;5133661;27;20674;-52
2022/07/30 10:40:16;;;;;;;5.50;3.90;;;24.80;99.90;;;;;;5132976;27;20163;-52
2022/07/30 10:43:01;;;;;;;4.85;3.90;;;24.70;99.90;;;;;;5133962;27;20199;-50
2022/07/30 10:45:50;;;;;;;8.45;3.85;;;24.70;99.90;;;;;;5133756;27;20164;-51
2022/07/30 10:48:18;;;;;;;4.13;3.60;;;24.70;99.90;;;;;;5133904;27;20218;-44
2022/07/30 10:50:56;;;;;;;7.90;3.75;;;24.80;99.90;;;;;;5134007;27;20167;-46
2022/07/30 10:53:44;;;;;;;6.13;3.00;;;25.30;99.90;;;;;;5133679;27;20262;-48
2022/07/30 10:56:15;;;;;;;7.10;3.58;;;25.50;99.90;;;;;;5133678;27;20252;-47
2022/07/30 10:58:59;;;;;;;4.88;3.33;;;25.30;99.90;;;;;;5133281;27;20203;-48
2022/07/30 11:01:25;;;;;;;3.65;3.17;;;25.20;99.90;;;;;;5133360;27;20229;-47
2022/07/30 11:04:25;;;;;;;4.60;3.10;;;25.00;99.90;;;;;;5133293;27;20191;-43
2022/07/30 11:07:01;;;;;;;4.57;3.30;;;25.10;99.90;;;;;;5133239;27;20168;-43
2022/07/30 11:09:37;;;;;;;6.03;3.17;;;25.30;99.90;;;;;;5114686;27;20569;-45
2022/07/30 11:12:05;;;;;;;5.32;3.17;;;25.20;99.90;;;;;;5132947;27;20226;-46
2022/07/30 11:14:51;;;;;;;4.13;3.22;;;25.10;99.90;;;;;;5133071;27;20631;-48
2022/07/30 11:17:17;;;;;;;4.60;3.50;;;24.90;99.90;;;;;;5115331;27;20207;-44
2022/07/30 11:20:05;;;;;;;4.72;3.38;;;25.10;99.90;;;;;;5133125;27;20171;-44
2022/07/30 11:22:43;;;;;;;4.53;3.17;;;25.60;99.90;;;;;;5132894;27;20536;-45
2022/07/30 11:25:38;;;;;;;3.75;2.40;;;25.50;99.90;;;;;;5132903;27;20172;-43
2022/07/30 11:28:05;;;;;;;3.60;2.67;;;25.60;99.90;;;;;;5111623;27;20183;-43
2022/07/30 11:30:33;;;;;;;3.45;3.15;;;25.60;99.90;;;;;;5131324;27;20175;-43
2022/07/30 11:33:18;;;;;;;4.90;2.80;;;25.50;99.90;;;;;;5131611;27;20171;-44
2022/07/30 11:36:05;;;;;;;3.85;2.83;;;25.60;99.90;;;;;;5131123;27;20650;-48
2022/07/30 11:38:51;;;;;;;7.75;2.90;;;25.60;99.90;;;;;;5131337;27;20676;-46
2022/07/30 11:41:17;;;;;;;5.22;2.67;;;25.60;99.90;;;;;;5131298;27;20163;-45
2022/07/30 11:43:43;;;;;;;5.43;3.03;;;25.60;99.90;;;;;;5131760;27;20175;-49
2022/07/30 11:46:10;;;;;;;2.78;2.47;;;25.40;99.90;;;;;;5131249;27;20177;-45
2022/07/30 11:48:38;;;;;;;4.72;2.42;;;25.60;99.90;;;;;;5131226;27;20626;-44
2022/07/30 11:51:04;;;;;;;3.47;2.35;;;26.00;99.90;;;;;;5131145;27;20186;-51
2022/07/30 11:53:30;;;;;;;2.90;2.50;;;26.10;99.90;;;;;;5135046;27;20175;-48
2022/07/30 11:55:58;;;;;;;3.72;2.40;;;26.50;99.90;;;;;;5116969;27;20172;-46
2022/07/30 11:58:25;;;;;;;5.70;2.85;;;26.10;99.90;;;;;;5135857;27;20207;-48
2022/07/30 12:00:52;;;;;;;4.30;2.78;;;26.20;99.90;;;;;;5135397;27;20162;-57
2022/07/30 12:03:20;;;;;;;4.97;2.78;;;26.30;99.90;;;;;;5135267;27;20638;-44
2022/07/30 12:05:46;;;;;;;4.63;2.60;;;26.30;99.90;;;;;;5135219;27;20163;-44
2022/07/30 12:08:13;;;;;;;2.70;2.45;;;26.30;99.90;;;;;;5135497;27;20524;-55
2022/07/30 12:10:41;;;;;;;5.60;2.40;;;26.50;99.90;;;;;;5135193;27;20227;-50
2022/07/30 12:13:07;;;;;;;3.00;2.35;;;26.30;99.90;;;;;;5135121;27;20583;-52
2022/07/30 12:15:35;;;;;;;4.05;2.55;;;26.30;99.90;;;;;;5135041;27;20171;-47
2022/07/30 12:18:01;;;;;;;6.10;2.58;;;26.50;99.90;;;;;;5135083;27;20215;-49
2022/07/30 12:20:27;;;;;;;2.50;2.20;;;26.20;99.90;;;;;;5134637;27;20175;-50
2022/07/30 12:22:53;;;;;;;2.42;2.20;;;26.20;99.90;;;;;;5134542;27;20172;-51
2022/07/30 12:25:19;;;;;;;4.00;2.28;;;26.10;99.90;;;;;;5134046;27;20174;-49
2022/07/30 12:27:47;;;;;;;2.50;2.08;;;26.20;99.90;;;;;;5135083;27;20182;-48
2022/07/30 12:30:14;;;;;;;2.58;1.90;;;26.10;99.90;;;;;;5135020;27;20275;-51
2022/07/30 12:32:41;;;;;;;2.17;1.63;;;26.30;99.90;;;;;;5134847;27;20178;-45
2022/07/30 12:35:07;;;;;;;3.50;1.90;;;26.40;99.90;;;;;;5134455;27;20171;-50
2022/07/30 12:37:33;;;;;;;4.30;2.53;;;26.30;99.90;;;;;;5134499;27;20263;-48
2022/07/30 12:40:13;;;;;;;3.35;2.25;;;26.30;99.90;;;;;;5134157;27;20176;-51
2022/07/30 12:42:52;;;;;;;3.28;2.00;;;26.70;99.90;;;;;;5134663;27;20191;-47
2022/07/30 12:45:32;;;;;;;4.18;2.33;;;26.60;99.90;;;;;;5134290;27;20159;-51